createdAt,value
2023-05-17T00:00:19.387Z,49.14
2023-05-17T00:01:19.452Z,49.13
2023-05-17T00:02:19.358Z,49.14
2023-05-17T00:03:19.365Z,49.15
2023-05-17T00:04:19.353Z,49.13
2023-05-17T00:05:19.366Z,49.15
2023-05-17T00:06:19.449Z,49.14
2023-05-17T00:07:19.353Z,49.14
2023-05-17T00:08:19.368Z,49.09
2023-05-17T00:09:19.348Z,49.11
2023-05-17T00:10:19.359Z,49.12
2023-05-17T00:11:19.333Z,49.11
2023-05-17T00:12:19.384Z,49.09
2023-05-17T00:13:19.324Z,49.10
2023-05-17T00:14:19.314Z,49.10
2023-05-17T00:15:19.332Z,49.11
2023-05-17T00:16:19.311Z,49.06
2023-05-17T00:17:19.377Z,49.06
2023-05-17T00:18:19.442Z,49.09
2023-05-17T00:19:20.101Z,49.08
2023-05-17T00:20:19.354Z,49.08
2023-05-17T00:21:19.275Z,49.07
2023-05-17T00:22:19.316Z,49.06
2023-05-17T00:23:19.299Z,49.08
2023-05-17T00:24:19.281Z,49.06
2023-05-17T00:25:19.307Z,49.07
2023-05-17T00:26:19.285Z,49.05
2023-05-17T00:27:19.263Z,49.04
2023-05-17T00:28:19.282Z,49.04
2023-05-17T00:29:19.262Z,49.03
2023-05-17T00:30:19.266Z,49.01
2023-05-17T00:31:19.246Z,49.02
2023-05-17T00:32:19.245Z,49.04
2023-05-17T00:33:19.319Z,49.04
2023-05-17T00:34:19.252Z,49.02
2023-05-17T00:35:19.335Z,49.04
2023-05-17T00:36:19.249Z,49.01
2023-05-17T00:37:19.216Z,49.00
2023-05-17T00:38:19.223Z,49.01
2023-05-17T00:39:19.220Z,49.00
2023-05-17T00:40:19.193Z,49.03
2023-05-17T00:41:19.240Z,49.03
2023-05-17T00:42:19.220Z,49.00
2023-05-17T00:43:19.224Z,49.00
2023-05-17T00:44:19.217Z,48.99
2023-05-17T00:45:19.205Z,48.98
2023-05-17T00:46:19.223Z,48.98
2023-05-17T00:47:19.240Z,48.96
2023-05-17T00:48:19.266Z,48.97
2023-05-17T00:49:19.446Z,48.98
2023-05-17T00:50:19.189Z,48.96
2023-05-17T00:51:19.202Z,48.97
2023-05-17T00:52:19.191Z,48.97
2023-05-17T00:53:19.205Z,48.97
2023-05-17T00:54:19.191Z,48.98
2023-05-17T00:55:19.168Z,48.97
2023-05-17T00:56:19.279Z,48.94
2023-05-17T00:57:19.157Z,48.97
2023-05-17T00:58:19.190Z,48.93
2023-05-17T00:59:19.177Z,48.97
2023-05-17T01:00:19.159Z,48.96
2023-05-17T01:01:19.176Z,48.92
2023-05-17T01:02:19.174Z,48.94
2023-05-17T01:03:19.215Z,48.91
2023-05-17T01:04:19.300Z,48.94
2023-05-17T01:05:19.205Z,48.92
2023-05-17T01:06:19.129Z,48.92
2023-05-17T01:07:19.175Z,48.92
2023-05-17T01:08:19.163Z,48.90
2023-05-17T01:09:19.142Z,48.90
2023-05-17T01:10:19.152Z,48.91
2023-05-17T01:11:19.125Z,48.90
2023-05-17T01:12:19.099Z,48.87
2023-05-17T01:13:19.125Z,48.89
2023-05-17T01:14:19.128Z,48.92
2023-05-17T01:15:19.073Z,48.92
2023-05-17T01:16:19.083Z,48.90
2023-05-17T01:17:19.149Z,48.89
2023-05-17T01:18:19.175Z,48.86
2023-05-17T01:19:19.171Z,48.85
2023-05-17T01:20:19.169Z,48.86
2023-05-17T01:21:19.231Z,48.87
2023-05-17T01:22:19.103Z,48.86
2023-05-17T01:23:19.122Z,48.84
2023-05-17T01:24:19.082Z,48.84
2023-05-17T01:25:19.080Z,48.87
2023-05-17T01:26:19.126Z,48.86
2023-05-17T01:27:19.124Z,48.86
2023-05-17T01:28:19.096Z,48.85
2023-05-17T01:29:19.114Z,48.85
2023-05-17T01:30:19.070Z,48.84
2023-05-17T01:31:19.092Z,48.84
2023-05-17T01:32:19.104Z,48.82
2023-05-17T01:33:19.177Z,48.83
2023-05-17T01:34:19.080Z,48.83
2023-05-17T01:35:19.075Z,48.80
2023-05-17T01:36:19.069Z,48.80
2023-05-17T01:37:19.143Z,48.82
2023-05-17T01:38:19.043Z,48.79
2023-05-17T01:39:19.078Z,48.79
2023-05-17T01:40:19.053Z,48.80
2023-05-17T01:41:19.072Z,48.81
2023-05-17T01:42:19.053Z,48.76
2023-05-17T01:43:19.047Z,48.80
2023-05-17T01:44:19.031Z,48.80
2023-05-17T01:45:19.012Z,48.79
2023-05-17T01:46:19.025Z,48.75
2023-05-17T01:47:19.015Z,48.76
2023-05-17T01:48:19.115Z,48.77
2023-05-17T01:49:19.057Z,48.74
2023-05-17T01:50:19.035Z,48.73
2023-05-17T01:51:19.007Z,48.75
2023-05-17T01:52:19.036Z,48.73
2023-05-17T01:53:19.081Z,48.74
2023-05-17T01:54:19.053Z,48.72
2023-05-17T01:55:19.016Z,48.73
2023-05-17T01:56:19.008Z,48.72
2023-05-17T01:57:19.006Z,48.74
2023-05-17T01:58:19.012Z,48.73
2023-05-17T01:59:19.003Z,48.71
2023-05-17T02:00:19.000Z,48.71
2023-05-17T02:01:18.989Z,48.73
2023-05-17T02:02:18.995Z,48.71
2023-05-17T02:03:20.014Z,48.68
2023-05-17T02:04:19.070Z,48.69
2023-05-17T02:05:19.086Z,48.70
2023-05-17T02:06:18.974Z,48.66
2023-05-17T02:07:18.978Z,48.68
2023-05-17T02:08:18.958Z,48.66
2023-05-17T02:09:19.103Z,48.64
2023-05-17T02:10:18.980Z,48.67
2023-05-17T02:11:19.022Z,48.65
2023-05-17T02:12:18.965Z,48.64
2023-05-17T02:13:18.924Z,48.60
2023-05-17T02:14:19.023Z,48.61
2023-05-17T02:15:19.049Z,48.59
2023-05-17T02:16:18.970Z,48.61
2023-05-17T02:17:18.969Z,48.63
2023-05-17T02:18:19.014Z,48.62
2023-05-17T02:19:19.047Z,48.57
2023-05-17T02:20:18.938Z,48.59
2023-05-17T02:21:18.951Z,48.60
2023-05-17T02:22:18.954Z,48.58
2023-05-17T02:23:18.941Z,48.57
2023-05-17T02:24:18.941Z,48.56
2023-05-17T02:25:19.091Z,48.54
2023-05-17T02:26:18.933Z,48.57
2023-05-17T02:27:18.955Z,48.59
2023-05-17T02:28:18.955Z,48.58
2023-05-17T02:29:18.972Z,48.53
2023-05-17T02:30:18.932Z,48.56
2023-05-17T02:31:18.958Z,48.52
2023-05-17T02:32:18.959Z,48.52
2023-05-17T02:33:19.056Z,48.53
2023-05-17T02:34:18.904Z,48.51
2023-05-17T02:35:18.903Z,48.50
2023-05-17T02:36:18.943Z,48.52
2023-05-17T02:37:18.942Z,48.51
2023-05-17T02:38:18.913Z,48.49
2023-05-17T02:39:18.911Z,48.46
2023-05-17T02:40:18.916Z,48.49
2023-05-17T02:41:18.891Z,48.46
2023-05-17T02:42:18.913Z,48.48
2023-05-17T02:43:18.866Z,48.48
2023-05-17T02:44:18.895Z,48.46
2023-05-17T02:45:18.897Z,48.46
2023-05-17T02:46:18.851Z,48.48
2023-05-17T02:47:18.941Z,48.46
2023-05-17T02:48:18.909Z,48.44
2023-05-17T02:49:18.842Z,48.46
2023-05-17T02:50:18.844Z,48.47
2023-05-17T02:51:18.861Z,48.45
2023-05-17T02:52:18.867Z,48.45
2023-05-17T02:53:18.836Z,48.45
2023-05-17T02:54:18.827Z,48.43
2023-05-17T02:55:18.860Z,48.43
2023-05-17T02:56:18.815Z,48.41
2023-05-17T02:57:18.830Z,48.43
2023-05-17T02:58:18.821Z,48.42
2023-05-17T02:59:18.825Z,48.43
2023-05-17T03:00:18.878Z,48.40
2023-05-17T03:01:18.822Z,48.39
2023-05-17T03:02:18.912Z,48.39
2023-05-17T03:03:18.945Z,48.40
2023-05-17T03:04:19.578Z,48.37
2023-05-17T03:05:18.823Z,48.37
2023-05-17T03:06:18.833Z,48.38
2023-05-17T03:07:18.793Z,48.39
2023-05-17T03:08:18.802Z,48.39
2023-05-17T03:09:18.832Z,48.38
2023-05-17T03:10:18.802Z,48.38
2023-05-17T03:11:18.783Z,48.39
2023-05-17T03:12:18.761Z,48.39
2023-05-17T03:13:18.870Z,48.35
2023-05-17T03:14:18.815Z,48.36
2023-05-17T03:15:18.796Z,48.35
2023-05-17T03:16:18.776Z,48.33
2023-05-17T03:17:18.782Z,48.35
2023-05-17T03:18:18.855Z,48.35
2023-05-17T03:19:18.823Z,48.33
2023-05-17T03:20:18.802Z,48.34
2023-05-17T03:21:18.780Z,48.33
2023-05-17T03:22:18.768Z,48.31
2023-05-17T03:23:18.768Z,48.31
2023-05-17T03:24:18.777Z,48.30
2023-05-17T03:25:18.788Z,48.31
2023-05-17T03:26:18.745Z,48.29
2023-05-17T03:27:18.780Z,48.31
2023-05-17T03:28:18.781Z,48.28
2023-05-17T03:29:18.808Z,48.28
2023-05-17T03:30:18.756Z,48.29
2023-05-17T03:31:18.752Z,48.29
2023-05-17T03:32:18.732Z,48.28
2023-05-17T03:33:18.848Z,48.28
2023-05-17T03:34:18.698Z,48.25
2023-05-17T03:35:18.722Z,48.24
2023-05-17T03:36:18.711Z,48.22
2023-05-17T03:37:19.494Z,48.24
2023-05-17T03:38:18.701Z,48.25
2023-05-17T03:39:18.734Z,48.17
2023-05-17T03:40:18.722Z,48.18
2023-05-17T03:41:18.667Z,48.21
2023-05-17T03:42:18.688Z,48.17
2023-05-17T03:43:18.690Z,48.21
2023-05-17T03:44:18.649Z,48.20
2023-05-17T03:45:18.742Z,48.21
2023-05-17T03:46:18.673Z,48.21
2023-05-17T03:47:18.673Z,48.18
2023-05-17T03:48:18.684Z,48.18
2023-05-17T03:49:18.686Z,48.14
2023-05-17T03:50:18.670Z,48.15
2023-05-17T03:51:18.669Z,48.14
2023-05-17T03:52:18.687Z,48.13
2023-05-17T03:53:18.664Z,48.15
2023-05-17T03:54:18.664Z,48.15
2023-05-17T03:55:18.622Z,48.14
2023-05-17T03:56:18.628Z,48.15
2023-05-17T03:57:18.651Z,48.12
2023-05-17T03:58:18.664Z,48.13
2023-05-17T03:59:18.662Z,48.11
2023-05-17T04:00:18.671Z,48.11
2023-05-17T04:01:18.787Z,48.10
2023-05-17T04:02:18.686Z,48.12
2023-05-17T04:03:20.225Z,48.10
2023-05-17T04:04:18.744Z,48.15
2023-05-17T04:05:19.650Z,48.06
2023-05-17T04:06:18.646Z,48.08
2023-05-17T04:07:18.656Z,48.08
2023-05-17T04:08:18.660Z,48.08
2023-05-17T04:09:18.633Z,48.05
2023-05-17T04:10:18.637Z,48.05
2023-05-17T04:11:18.642Z,48.05
2023-05-17T04:12:18.639Z,48.07
2023-05-17T04:13:18.645Z,48.06
2023-05-17T04:14:18.634Z,48.06
2023-05-17T04:15:18.604Z,48.06
2023-05-17T04:16:18.628Z,48.04
2023-05-17T04:17:18.686Z,48.01
2023-05-17T04:18:18.640Z,48.04
2023-05-17T04:19:18.771Z,48.01
2023-05-17T04:20:18.602Z,48.05
2023-05-17T04:21:18.603Z,47.98
2023-05-17T04:22:18.596Z,47.99
2023-05-17T04:23:18.607Z,48.00
2023-05-17T04:24:18.626Z,48.03
2023-05-17T04:25:18.643Z,48.03
2023-05-17T04:26:18.596Z,48.00
2023-05-17T04:27:18.622Z,48.01
2023-05-17T04:28:18.603Z,47.97
2023-05-17T04:29:18.629Z,47.99
2023-05-17T04:30:18.612Z,47.99
2023-05-17T04:31:18.633Z,47.97
2023-05-17T04:32:18.588Z,47.96
2023-05-17T04:33:18.796Z,47.98
2023-05-17T04:34:18.605Z,47.95
2023-05-17T04:35:18.640Z,47.97
2023-05-17T04:36:18.627Z,47.96
2023-05-17T04:37:18.620Z,47.98
2023-05-17T04:38:18.596Z,47.95
2023-05-17T04:39:18.609Z,47.93
2023-05-17T04:40:18.677Z,47.93
2023-05-17T04:41:18.589Z,47.92
2023-05-17T04:42:18.601Z,47.91
2023-05-17T04:43:18.640Z,47.93
2023-05-17T04:44:18.586Z,47.92
2023-05-17T04:45:18.614Z,47.91
2023-05-17T04:46:18.604Z,47.90
2023-05-17T04:47:18.617Z,47.90
2023-05-17T04:48:18.721Z,47.91
2023-05-17T04:49:18.730Z,47.88
2023-05-17T04:50:18.622Z,47.91
2023-05-17T04:51:18.649Z,47.92
2023-05-17T04:52:18.630Z,47.90
2023-05-17T04:53:18.627Z,47.88
2023-05-17T04:54:18.641Z,47.90
2023-05-17T04:55:18.676Z,47.97
2023-05-17T04:56:18.675Z,48.00
2023-05-17T04:57:18.661Z,48.05
2023-05-17T04:58:18.696Z,48.04
2023-05-17T04:59:18.680Z,48.08
2023-05-17T05:00:18.688Z,48.10
2023-05-17T05:01:18.693Z,48.12
2023-05-17T05:02:18.716Z,48.12
2023-05-17T05:03:18.744Z,48.13
2023-05-17T05:04:18.778Z,48.14
2023-05-17T05:05:18.840Z,48.11
2023-05-17T05:06:18.765Z,48.13
2023-05-17T05:07:18.758Z,48.13
2023-05-17T05:08:18.790Z,48.14
2023-05-17T05:09:18.813Z,48.10
2023-05-17T05:10:18.781Z,48.08
2023-05-17T05:11:18.813Z,48.04
2023-05-17T05:12:18.923Z,48.03
2023-05-17T05:13:18.912Z,47.99
2023-05-17T05:14:18.853Z,47.96
2023-05-17T05:15:18.862Z,47.96
2023-05-17T05:16:18.888Z,47.91
2023-05-17T05:17:18.977Z,47.85
2023-05-17T05:18:19.015Z,47.81
2023-05-17T05:19:19.094Z,47.76
2023-05-17T05:20:18.971Z,47.72
2023-05-17T05:21:19.014Z,47.68
2023-05-17T05:22:18.967Z,47.60
2023-05-17T05:23:19.011Z,47.52
2023-05-17T05:24:19.005Z,47.51
2023-05-17T05:25:19.013Z,47.47
2023-05-17T05:26:19.053Z,47.40
2023-05-17T05:27:19.093Z,47.35
2023-05-17T05:28:19.061Z,47.31
2023-05-17T05:29:19.083Z,47.27
2023-05-17T05:30:19.124Z,47.24
2023-05-17T05:31:19.125Z,47.19
2023-05-17T05:32:19.185Z,47.15
2023-05-17T05:33:19.243Z,47.13
2023-05-17T05:34:19.155Z,47.04
2023-05-17T05:35:19.219Z,47.04
2023-05-17T05:36:19.243Z,47.13
2023-05-17T05:37:19.342Z,47.34
2023-05-17T05:38:19.262Z,47.26
2023-05-17T05:39:19.291Z,47.41
2023-05-17T05:40:19.322Z,47.33
2023-05-17T05:41:19.333Z,47.10
2023-05-17T05:42:19.382Z,47.05
2023-05-17T05:43:19.376Z,47.41
2023-05-17T05:44:19.419Z,47.49
2023-05-17T05:45:19.414Z,47.54
2023-05-17T05:46:19.463Z,47.83
2023-05-17T05:47:19.463Z,47.83
2023-05-17T05:48:19.592Z,47.80
2023-05-17T05:49:19.524Z,47.87
2023-05-17T05:50:19.522Z,47.87
2023-05-17T05:51:21.365Z,48.18
2023-05-17T05:52:19.522Z,48.16
2023-05-17T05:53:20.091Z,48.34
2023-05-17T05:54:19.519Z,48.53
2023-05-17T05:55:19.506Z,48.70
2023-05-17T05:56:19.496Z,48.82
2023-05-17T05:57:19.521Z,48.92
2023-05-17T05:58:19.501Z,49.24
2023-05-17T05:59:19.499Z,49.18
2023-05-17T06:00:19.473Z,49.21
2023-05-17T06:01:19.462Z,49.42
2023-05-17T06:02:19.462Z,49.47
2023-05-17T06:03:19.473Z,49.73
2023-05-17T06:04:21.056Z,49.68
2023-05-17T06:05:20.488Z,49.81
2023-05-17T06:06:19.673Z,49.92
2023-05-17T06:07:19.586Z,49.98
2023-05-17T06:08:19.457Z,50.01
2023-05-17T06:09:19.556Z,50.01
2023-05-17T06:10:19.463Z,50.01
2023-05-17T06:11:19.448Z,50.31
2023-05-17T06:12:19.389Z,50.16
2023-05-17T06:13:19.428Z,50.14
2023-05-17T06:14:19.426Z,50.16
2023-05-17T06:15:19.484Z,50.21
2023-05-17T06:16:19.601Z,50.38
2023-05-17T06:17:19.612Z,50.40
2023-05-17T06:18:19.766Z,50.22
2023-05-17T06:19:19.790Z,50.25
2023-05-17T06:20:19.779Z,50.28
2023-05-17T06:21:19.848Z,50.31
2023-05-17T06:22:19.879Z,50.34
2023-05-17T06:23:19.957Z,50.28
2023-05-17T06:24:19.990Z,50.29
2023-05-17T06:25:20.119Z,50.27
2023-05-17T06:26:20.083Z,50.25
2023-05-17T06:27:20.145Z,50.20
2023-05-17T06:28:20.183Z,50.12
2023-05-17T06:29:20.208Z,50.19
2023-05-17T06:30:20.258Z,50.15
2023-05-17T06:31:21.209Z,50.06
2023-05-17T06:32:20.360Z,50.18
2023-05-17T06:33:20.651Z,50.02
2023-05-17T06:34:20.424Z,49.97
2023-05-17T06:35:20.527Z,50.03
2023-05-17T06:36:20.572Z,49.92
2023-05-17T06:37:20.540Z,49.91
2023-05-17T06:38:20.553Z,50.02
2023-05-17T06:39:20.500Z,49.86
2023-05-17T06:40:20.508Z,49.84
2023-05-17T06:41:20.580Z,49.73
2023-05-17T06:42:20.484Z,49.65
2023-05-17T06:43:20.476Z,49.60
2023-05-17T06:44:20.495Z,49.52
2023-05-17T06:45:20.500Z,49.57
2023-05-17T06:46:20.469Z,49.71
2023-05-17T06:47:20.512Z,49.65
2023-05-17T06:48:20.665Z,49.47
2023-05-17T06:49:20.613Z,49.51
2023-05-17T06:50:20.675Z,49.39
2023-05-17T06:51:20.736Z,49.61
2023-05-17T06:52:20.756Z,49.84
2023-05-17T06:53:20.886Z,49.57
2023-05-17T06:54:20.906Z,49.65
2023-05-17T06:55:20.937Z,49.64
2023-05-17T06:56:20.984Z,49.64
2023-05-17T06:57:21.119Z,49.70
2023-05-17T06:58:21.148Z,49.47
2023-05-17T06:59:21.186Z,49.36
2023-05-17T07:00:21.255Z,49.40
2023-05-17T07:01:21.382Z,49.36
2023-05-17T07:02:21.347Z,49.34
2023-05-17T07:03:21.469Z,49.37
2023-05-17T07:04:21.569Z,49.40
2023-05-17T07:05:21.676Z,49.37
2023-05-17T07:06:21.570Z,49.45
2023-05-17T07:07:21.600Z,49.57
2023-05-17T07:08:21.645Z,49.58
2023-05-17T07:09:21.680Z,49.54
2023-05-17T07:10:21.728Z,49.56
2023-05-17T07:11:21.788Z,49.58
2023-05-17T07:12:21.860Z,49.54
2023-05-17T07:13:22.041Z,49.56
2023-05-17T07:14:21.976Z,49.49
2023-05-17T07:15:22.033Z,49.55
2023-05-17T07:16:22.089Z,49.43
2023-05-17T07:17:22.145Z,49.47
2023-05-17T07:18:22.300Z,49.46
2023-05-17T07:19:22.408Z,49.49
2023-05-17T07:20:22.343Z,49.52
2023-05-17T07:21:22.422Z,49.54
2023-05-17T07:22:22.460Z,49.53
2023-05-17T07:23:22.521Z,49.42
2023-05-17T07:24:22.574Z,49.39
2023-05-17T07:25:22.634Z,49.44
2023-05-17T07:26:22.672Z,49.52
2023-05-17T07:27:22.706Z,49.54
2023-05-17T07:28:22.810Z,49.38
2023-05-17T07:29:22.940Z,49.45
2023-05-17T07:30:22.887Z,49.41
2023-05-17T07:31:22.944Z,49.27
2023-05-17T07:32:23.116Z,49.40
2023-05-17T07:33:23.074Z,49.43
2023-05-17T07:34:23.107Z,49.37
2023-05-17T07:35:23.110Z,49.34
2023-05-17T07:36:23.270Z,49.29
2023-05-17T07:37:23.189Z,49.21
2023-05-17T07:38:23.253Z,49.23
2023-05-17T07:39:23.293Z,49.22
2023-05-17T07:40:23.336Z,49.20
2023-05-17T07:41:23.385Z,49.05
2023-05-17T07:42:23.466Z,49.25
2023-05-17T07:43:23.506Z,48.98
2023-05-17T07:44:23.566Z,48.78
2023-05-17T07:45:23.702Z,48.62
2023-05-17T07:46:23.665Z,48.85
2023-05-17T07:47:23.785Z,48.69
2023-05-17T07:48:23.942Z,48.58
2023-05-17T07:49:23.925Z,48.48
2023-05-17T07:50:23.870Z,48.43
2023-05-17T07:51:23.893Z,48.35
2023-05-17T07:52:23.895Z,48.33
2023-05-17T07:53:23.899Z,48.27
2023-05-17T07:54:23.921Z,48.27
2023-05-17T07:55:23.976Z,48.14
2023-05-17T07:56:23.933Z,47.90
2023-05-17T07:57:23.933Z,47.92
2023-05-17T07:58:23.931Z,47.79
2023-05-17T07:59:23.933Z,47.78
2023-05-17T08:00:24.028Z,47.81
2023-05-17T08:01:24.065Z,47.93
2023-05-17T08:02:24.070Z,47.94
2023-05-17T08:03:24.053Z,47.97
2023-05-17T08:04:24.457Z,47.90
2023-05-17T08:05:24.090Z,47.91
2023-05-17T08:06:24.170Z,47.95
2023-05-17T08:07:24.059Z,47.94
2023-05-17T08:08:24.638Z,47.96
2023-05-17T08:09:24.118Z,47.92
2023-05-17T08:10:24.065Z,47.92
2023-05-17T08:11:24.020Z,47.87
2023-05-17T08:12:24.048Z,47.87
2023-05-17T08:13:24.104Z,47.84
2023-05-17T08:14:25.669Z,47.80
2023-05-17T08:15:24.052Z,47.77
2023-05-17T08:16:24.019Z,47.79
2023-05-17T08:17:24.086Z,47.72
2023-05-17T08:18:24.123Z,47.73
2023-05-17T08:19:24.245Z,47.70
2023-05-17T08:20:24.162Z,47.64
2023-05-17T08:21:24.040Z,47.63
2023-05-17T08:22:24.097Z,47.57
2023-05-17T08:23:24.058Z,47.59
2023-05-17T08:24:24.069Z,47.48
2023-05-17T08:25:24.117Z,47.49
2023-05-17T08:26:24.079Z,47.48
2023-05-17T08:27:24.106Z,47.45
2023-05-17T08:28:24.103Z,47.42
2023-05-17T08:29:24.106Z,47.39
2023-05-17T08:31:24.148Z,47.28
2023-05-17T08:32:24.160Z,47.25
2023-05-17T08:33:24.819Z,47.19
2023-05-17T08:34:24.119Z,47.18
2023-05-17T08:35:27.703Z,47.12
2023-05-17T08:36:24.097Z,47.10
2023-05-17T08:37:24.125Z,47.09
2023-05-17T08:38:24.108Z,47.03
2023-05-17T08:39:24.074Z,47.03
2023-05-17T08:40:24.094Z,46.90
2023-05-17T08:41:24.044Z,46.88
2023-05-17T08:42:24.054Z,46.90
2023-05-17T08:43:25.971Z,46.81
2023-05-17T08:44:24.030Z,46.76
2023-05-17T08:45:24.013Z,46.73
2023-05-17T08:46:24.018Z,46.65
2023-05-17T08:47:24.056Z,46.66
2023-05-17T08:48:24.076Z,46.56
2023-05-17T08:49:24.007Z,46.56
2023-05-17T08:50:23.980Z,46.52
2023-05-17T08:51:23.976Z,46.41
2023-05-17T08:52:23.974Z,46.29
2023-05-17T08:53:24.016Z,46.22
2023-05-17T08:54:23.979Z,46.11
2023-05-17T08:55:23.965Z,45.98
2023-05-17T08:56:23.952Z,45.87
2023-05-17T08:57:23.921Z,45.67
2023-05-17T08:58:23.933Z,45.56
2023-05-17T08:59:23.903Z,45.45
2023-05-17T09:00:23.922Z,45.48
2023-05-17T09:01:25.523Z,45.45
2023-05-17T09:02:23.931Z,45.22
2023-05-17T09:03:24.069Z,45.30
2023-05-17T09:04:23.881Z,45.23
2023-05-17T09:05:23.884Z,45.16
2023-05-17T09:06:23.858Z,45.09
2023-05-17T09:07:23.874Z,45.19
2023-05-17T09:08:23.826Z,45.16
2023-05-17T09:09:23.830Z,45.24
2023-05-17T09:10:23.845Z,45.12
2023-05-17T09:11:23.842Z,45.07
2023-05-17T09:12:25.694Z,45.12
2023-05-17T09:13:23.806Z,45.24
2023-05-17T09:14:23.794Z,45.32
2023-05-17T09:15:23.787Z,45.42
2023-05-17T09:16:23.778Z,45.48
2023-05-17T09:17:23.822Z,45.56
2023-05-17T09:18:23.857Z,45.66
2023-05-17T09:19:23.868Z,45.74
2023-05-17T09:20:23.808Z,45.77
2023-05-17T09:21:23.762Z,45.85
2023-05-17T09:22:23.756Z,45.90
2023-05-17T09:23:23.743Z,46.02
2023-05-17T09:24:25.161Z,46.02
2023-05-17T09:25:23.721Z,46.08
2023-05-17T09:26:23.733Z,46.16
2023-05-17T09:27:23.752Z,46.24
2023-05-17T09:28:23.787Z,46.24
2023-05-17T09:29:23.816Z,46.27
2023-05-17T09:30:25.206Z,46.27
2023-05-17T09:31:23.869Z,46.30
2023-05-17T09:32:23.923Z,46.39
2023-05-17T09:33:23.920Z,46.53
2023-05-17T09:34:23.983Z,46.66
2023-05-17T09:35:24.025Z,47.76
2023-05-17T09:36:24.066Z,48.16
2023-05-17T09:37:24.081Z,48.59
2023-05-17T09:38:25.398Z,49.32
2023-05-17T09:39:24.176Z,49.51
2023-05-17T09:40:24.198Z,49.32
2023-05-17T09:41:24.330Z,49.60
2023-05-17T09:42:24.290Z,50.21
2023-05-17T09:43:24.288Z,49.66
2023-05-17T09:44:25.388Z,49.56
2023-05-17T09:45:24.365Z,49.72
2023-05-17T09:46:24.426Z,50.16
2023-05-17T09:47:24.542Z,49.74
2023-05-17T09:48:24.574Z,49.53
2023-05-17T09:49:24.560Z,49.41
2023-05-17T09:50:26.083Z,49.24
2023-05-17T09:51:24.607Z,49.00
2023-05-17T09:52:24.620Z,48.81
2023-05-17T09:53:24.689Z,48.71
2023-05-17T09:54:24.678Z,48.56
2023-05-17T09:55:24.730Z,48.34
2023-05-17T09:56:24.723Z,48.22
2023-05-17T09:57:24.760Z,48.13
2023-05-17T09:58:24.802Z,48.02
2023-05-17T09:59:24.801Z,47.93
2023-05-17T10:00:24.813Z,47.83
2023-05-17T10:01:24.818Z,47.78
2023-05-17T10:02:24.963Z,47.74
2023-05-17T10:03:24.989Z,47.60
2023-05-17T10:04:24.940Z,47.46
2023-05-17T10:05:25.042Z,47.30
2023-05-17T10:06:43.690Z,47.26
2023-05-17T10:07:25.970Z,47.13
2023-05-17T10:08:24.944Z,47.02
2023-05-17T10:09:25.018Z,46.93
2023-05-17T10:10:24.947Z,46.82
2023-05-17T10:11:24.938Z,46.69
2023-05-17T10:12:25.621Z,46.46
2023-05-17T10:13:24.913Z,46.40
2023-05-17T10:14:24.957Z,46.31
2023-05-17T10:15:24.966Z,46.17
2023-05-17T10:16:25.645Z,46.02
2023-05-17T10:17:24.948Z,45.95
2023-05-17T10:18:24.950Z,45.62
2023-05-17T10:19:24.938Z,45.42
2023-05-17T10:20:24.844Z,45.27
2023-05-17T10:21:24.847Z,45.26
2023-05-17T10:22:24.876Z,45.24
2023-05-17T10:23:24.848Z,45.24
2023-05-17T10:24:24.879Z,45.22
2023-05-17T10:25:24.874Z,45.08
2023-05-17T10:26:24.897Z,44.89
2023-05-17T10:27:24.937Z,44.79
2023-05-17T10:28:24.926Z,44.95
2023-05-17T10:29:24.987Z,44.86
2023-05-17T10:30:24.955Z,44.96
2023-05-17T10:31:25.018Z,45.08
2023-05-17T10:32:25.077Z,45.14
2023-05-17T10:33:25.168Z,45.22
2023-05-17T10:34:25.078Z,45.32
2023-05-17T10:35:25.138Z,45.29
2023-05-17T10:36:25.150Z,45.42
2023-05-17T10:37:25.161Z,46.28
2023-05-17T10:38:31.976Z,46.64
2023-05-17T10:39:26.158Z,46.87
2023-05-17T10:40:25.156Z,47.11
2023-05-17T10:41:25.184Z,47.27
2023-05-17T10:42:25.326Z,47.16
2023-05-17T10:43:25.181Z,47.08
2023-05-17T10:44:25.123Z,47.12
2023-05-17T10:45:25.132Z,47.11
2023-05-17T10:46:25.120Z,47.13
2023-05-17T10:47:25.136Z,47.16
2023-05-17T10:48:25.242Z,47.14
2023-05-17T10:49:25.122Z,47.16
2023-05-17T10:50:25.166Z,47.15
2023-05-17T10:51:25.191Z,47.15
2023-05-17T10:52:25.202Z,47.12
2023-05-17T10:53:25.277Z,47.16
2023-05-17T10:54:25.312Z,47.13
2023-05-17T10:55:25.343Z,47.13
2023-05-17T10:56:25.372Z,47.10
2023-05-17T10:57:26.544Z,47.07
2023-05-17T10:58:25.433Z,47.11
2023-05-17T10:59:25.494Z,47.07
2023-05-17T11:00:25.542Z,47.06
2023-05-17T11:01:25.587Z,47.02
2023-05-17T11:02:25.671Z,46.97
2023-05-17T11:03:25.654Z,46.94
2023-05-17T11:04:25.987Z,46.86
2023-05-17T11:05:25.837Z,46.88
2023-05-17T11:06:26.082Z,46.84
2023-05-17T11:07:25.801Z,46.83
2023-05-17T11:08:25.851Z,46.74
2023-05-17T11:09:25.872Z,46.69
2023-05-17T11:10:25.908Z,46.64
2023-05-17T11:11:25.961Z,46.51
2023-05-17T11:12:26.006Z,46.44
2023-05-17T11:13:26.066Z,46.39
2023-05-17T11:14:26.058Z,46.36
2023-05-17T11:15:26.169Z,46.37
2023-05-17T11:16:26.132Z,46.32
2023-05-17T11:17:26.197Z,46.25
2023-05-17T11:18:31.147Z,46.21
2023-05-17T11:19:27.283Z,46.14
2023-05-17T11:20:26.410Z,46.09
2023-05-17T11:21:26.223Z,46.07
2023-05-17T11:22:26.208Z,45.98
2023-05-17T11:23:26.161Z,45.90
2023-05-17T11:24:26.223Z,45.86
2023-05-17T11:25:26.157Z,45.76
2023-05-17T11:26:26.153Z,45.74
2023-05-17T11:27:26.128Z,45.73
2023-05-17T11:28:26.159Z,45.72
2023-05-17T11:29:26.147Z,45.59
2023-05-17T11:30:26.273Z,45.49
2023-05-17T11:31:26.101Z,45.93
2023-05-17T11:32:26.162Z,46.14
2023-05-17T11:33:33.553Z,46.71
2023-05-17T11:34:27.150Z,47.76
2023-05-17T11:35:26.103Z,47.32
2023-05-17T11:36:26.089Z,47.14
2023-05-17T11:37:26.100Z,47.20
2023-05-17T11:38:26.106Z,47.24
2023-05-17T11:39:26.073Z,47.23
2023-05-17T11:40:26.167Z,47.26
2023-05-17T11:41:27.290Z,47.55
2023-05-17T11:42:26.101Z,47.56
2023-05-17T11:43:26.058Z,47.68
2023-05-17T11:44:26.089Z,47.59
2023-05-17T11:45:26.165Z,47.54
2023-05-17T11:46:26.039Z,47.55
2023-05-17T11:47:26.101Z,47.59
2023-05-17T11:48:26.292Z,47.56
2023-05-17T11:49:35.083Z,47.61
2023-05-17T11:50:27.353Z,47.66
2023-05-17T11:51:26.049Z,47.65
2023-05-17T11:52:27.327Z,47.64
2023-05-17T11:53:26.085Z,47.73
2023-05-17T11:54:26.028Z,47.69
2023-05-17T11:55:26.026Z,47.68
2023-05-17T11:56:35.743Z,47.66
2023-05-17T11:57:26.991Z,47.64
2023-05-17T11:58:25.961Z,47.68
2023-05-17T11:59:25.959Z,47.68
2023-05-17T12:00:26.092Z,47.68
2023-05-17T12:01:25.978Z,47.67
2023-05-17T12:02:25.963Z,47.63
2023-05-17T12:03:25.957Z,47.53
2023-05-17T12:04:26.010Z,47.54
2023-05-17T12:05:25.918Z,47.44
2023-05-17T12:06:25.983Z,47.47
2023-05-17T12:07:25.913Z,47.25
2023-05-17T12:08:25.912Z,47.15
2023-05-17T12:09:25.917Z,46.96
2023-05-17T12:10:25.892Z,46.81
2023-05-17T12:11:25.946Z,46.73
2023-05-17T12:12:25.986Z,46.73
2023-05-17T12:13:26.027Z,46.68
2023-05-17T12:14:26.073Z,46.62
2023-05-17T12:15:26.100Z,46.65
2023-05-17T12:16:26.149Z,46.61
2023-05-17T12:17:26.210Z,46.60
2023-05-17T12:18:26.425Z,46.61
2023-05-17T12:19:26.378Z,46.56
2023-05-17T12:20:26.451Z,46.55
2023-05-17T12:21:26.311Z,46.51
2023-05-17T12:22:26.321Z,46.54
2023-05-17T12:23:26.363Z,46.55
2023-05-17T12:24:26.455Z,46.48
2023-05-17T12:25:26.429Z,46.47
2023-05-17T12:26:26.444Z,46.34
2023-05-17T12:27:26.488Z,46.28
2023-05-17T12:28:26.527Z,46.25
2023-05-17T12:29:26.529Z,46.30
2023-05-17T12:30:26.691Z,46.23
2023-05-17T12:31:26.605Z,46.13
2023-05-17T12:32:26.667Z,46.04
2023-05-17T12:33:26.740Z,45.97
2023-05-17T12:34:26.668Z,45.89
2023-05-17T12:35:26.684Z,45.87
2023-05-17T12:36:26.709Z,45.90
2023-05-17T12:37:26.767Z,46.00
2023-05-17T12:38:26.802Z,46.08
2023-05-17T12:39:26.823Z,46.19
2023-05-17T12:40:26.937Z,46.27
2023-05-17T12:41:26.849Z,46.34
2023-05-17T12:42:26.881Z,46.40
2023-05-17T12:43:26.905Z,46.47
2023-05-17T12:44:26.970Z,46.55
2023-05-17T12:45:26.963Z,46.52
2023-05-17T12:46:26.969Z,46.59
2023-05-17T12:47:27.006Z,46.69
2023-05-17T12:48:27.121Z,46.70
2023-05-17T12:49:27.087Z,46.76
2023-05-17T12:50:27.238Z,46.78
2023-05-17T12:51:27.122Z,46.62
2023-05-17T12:52:27.155Z,46.73
2023-05-17T12:53:27.181Z,46.70